Time;durP1;ratioP1;P1;durP2;ratioP2;P2;SDS_P1;SDS_P2;PMS_P1;PMS_P2;Temp;Humidity;BMP_temperature;BMP_pressure;BME280_temperature;BME280_humidity;BME280_pressure;Samples;Min_cycle;Max_cycle;Signal;HPM_P1;HPM_P2
2023/07/17 00:00:21;;;;;;;8.75;2.30;;;;;;;-146.27;81.42;82014.59;5070004;28;20063;-66
2023/07/17 00:02:46;;;;;;;6.15;2.13;;;;;;;-146.27;81.38;81994.50;5069913;28;20032;-68
2023/07/17 00:05:12;;;;;;;13.60;1.92;;;;;;;-146.27;81.55;82004.53;5069849;28;20068;-67
2023/07/17 00:07:39;;;;;;;9.52;2.10;;;;;;;-146.27;81.02;82006.53;5070039;28;20025;-66
2023/07/17 00:10:05;;;;;;;8.60;2.00;;;;;;;-146.27;81.34;82004.53;5070324;28;20031;-67
2023/07/17 00:12:31;;;;;;;8.25;1.95;;;;;;;-146.27;81.49;82022.63;5069584;28;20052;-66
2023/07/17 00:14:56;;;;;;;7.47;2.08;;;;;;;-146.27;81.20;82058.78;5069674;28;20138;-67
2023/07/17 00:17:22;;;;;;;9.73;2.20;;;;;;;-146.27;81.78;82034.66;5069846;28;20031;-67
2023/07/17 00:19:55;;;;;;;12.38;2.47;;;;;;;-146.27;80.97;82062.78;5069980;28;20081;-67
2023/07/17 00:22:21;;;;;;;9.02;2.47;;;;;;;-146.27;81.33;81966.38;5069840;28;20028;-67
2023/07/17 00:24:47;;;;;;;10.85;2.85;;;;;;;-146.27;81.11;82052.75;5069659;28;20028;-67
2023/07/17 00:27:12;;;;;;;13.15;2.05;;;;;;;-146.27;81.32;82090.91;5069683;28;20020;-66
2023/07/17 00:29:40;;;;;;;7.80;2.08;;;;;;;-146.27;81.05;82038.69;5069862;28;20025;-67
2023/07/17 00:32:06;;;;;;;10.55;2.30;;;;;;;-146.27;80.82;82042.69;5069710;28;20111;-66
2023/07/17 00:34:31;;;;;;;6.90;2.20;;;;;;;-146.27;80.78;82050.75;5069621;28;20158;-67
2023/07/17 00:36:57;;;;;;;6.72;2.58;;;;;;;-146.27;81.36;82074.84;5070053;28;20036;-67
2023/07/17 00:39:23;;;;;;;7.13;2.08;;;;;;;-146.27;81.27;82042.69;5069500;28;20021;-67
2023/07/17 00:41:50;;;;;;;9.23;1.80;;;;;;;-146.27;81.47;82074.84;5069649;28;20484;-67
2023/07/17 00:44:16;;;;;;;9.32;2.28;;;;;;;-146.27;81.20;82074.84;5069522;28;20025;-66
2023/07/17 00:46:43;;;;;;;14.48;2.17;;;;;;;-146.27;81.48;82076.84;5069856;28;20383;-67
2023/07/17 00:49:10;;;;;;;9.23;2.10;;;;;;;-146.27;81.64;82161.22;5068267;28;20339;-67
2023/07/17 00:51:39;;;;;;;11.25;1.80;;;;;;;-146.27;81.54;82076.84;5069743;28;20032;-66
2023/07/17 00:54:07;;;;;;;6.55;2.55;;;;;;;-146.27;81.64;82084.88;5069403;28;20106;-67
2023/07/17 00:56:33;;;;;;;8.27;2.00;;;;;;;-146.27;81.78;82115.00;5069817;28;20078;-67
2023/07/17 00:58:59;;;;;;;8.25;2.08;;;;;;;-146.27;81.67;82161.22;5071408;28;20020;-67
2023/07/17 01:01:26;;;;;;;11.10;2.20;;;;;;;-146.27;81.88;82094.94;5073139;28;20108;-67
2023/07/17 01:03:55;;;;;;;9.70;2.28;;;;;;;-146.27;81.97;82034.66;5071649;28;20380;-67
2023/07/17 01:06:22;;;;;;;5.03;1.67;;;;;;;-146.27;81.76;82088.91;5072916;28;20021;-67
2023/07/17 01:08:47;;;;;;;14.68;2.63;;;;;;;-146.27;81.73;82082.88;5072871;28;20032;-68
2023/07/17 01:11:14;;;;;;;11.55;2.53;;;;;;;-146.27;81.69;82070.81;5072766;28;20382;-67
2023/07/17 01:13:47;;;;;;;9.50;2.00;;;;;;;-146.27;82.03;82074.84;5072808;28;20408;-67
2023/07/17 01:16:13;;;;;;;10.23;2.88;;;;;;;-146.27;81.90;82098.94;5072757;28;20521;-67
2023/07/17 01:18:40;;;;;;;9.25;2.53;;;;;;;-146.27;82.32;82119.03;5072749;28;20053;-67
2023/07/17 01:21:08;;;;;;;8.07;2.10;;;;;;;-146.27;81.92;82080.88;5072760;28;20412;-67
2023/07/17 01:23:34;;;;;;;9.85;1.88;;;;;;;-146.27;82.44;82111.00;5072566;28;20177;-67
2023/07/17 01:26:00;;;;;;;8.65;2.17;;;;;;;-146.27;82.86;82127.06;5072742;28;20423;-67
2023/07/17 01:28:25;;;;;;;5.93;2.45;;;;;;;-146.27;82.73;82143.13;5072608;28;20475;-66
2023/07/17 01:30:51;;;;;;;8.82;2.05;;;;;;;-146.27;82.64;82098.94;5072617;28;20024;-67
2023/07/17 01:33:17;;;;;;;13.23;2.30;;;;;;;-146.27;83.23;82169.25;5072473;28;20027;-67
2023/07/17 01:35:43;;;;;;;19.40;2.75;;;;;;;-146.27;83.17;82104.97;5072451;28;20033;-67
2023/07/17 01:38:08;;;;;;;10.27;2.22;;;;;;;-146.27;83.51;82155.19;5072625;28;20020;-66
2023/07/17 01:40:34;;;;;;;15.43;3.33;;;;;;;-146.27;83.21;82131.09;5072611;28;20108;-66
2023/07/17 01:42:59;;;;;;;10.10;2.20;;;;;;;-146.27;83.51;82131.09;5072456;28;20024;-66
2023/07/17 01:45:25;;;;;;;6.05;1.90;;;;;;;-146.27;83.53;82155.19;5072252;28;20039;-67
2023/07/17 01:47:50;;;;;;;10.35;2.40;;;;;;;-146.27;83.80;82247.59;5072219;28;20028;-67
2023/07/17 01:50:15;;;;;;;9.18;2.50;;;;;;;-146.27;83.15;82163.22;5072003;28;20104;-67
2023/07/17 01:52:41;;;;;;;11.82;2.70;;;;;;;-146.27;83.36;82155.19;5072217;28;20090;-68
2023/07/17 01:55:07;;;;;;;7.60;2.53;;;;;;;-146.27;83.15;82157.19;5072217;28;20071;-67
2023/07/17 01:57:32;;;;;;;7.03;2.78;;;;;;;-146.27;82.58;82145.16;5071953;28;20036;-67
2023/07/17 01:59:58;;;;;;;13.15;3.90;;;;;;;-146.27;82.36;82171.25;5071944;28;20377;-67
2023/07/17 02:02:23;;;;;;;12.95;2.35;;;;;;;-146.27;82.07;82135.09;5070510;28;20465;-67
2023/07/17 02:04:48;;;;;;;5.60;2.55;;;;;;;-146.27;82.25;82127.06;5071706;28;20054;-67
2023/07/17 02:07:14;;;;;;;9.75;2.83;;;;;;;-146.27;82.20;82159.22;5071722;28;20031;-67
2023/07/17 02:09:39;;;;;;;10.55;2.70;;;;;;;-146.27;82.28;82129.06;5071119;28;20077;-67
2023/07/17 02:12:05;;;;;;;8.05;2.72;;;;;;;-146.27;82.67;82141.13;5071079;28;20122;-67
2023/07/17 02:14:30;;;;;;;10.00;2.55;;;;;;;-146.27;82.71;82169.25;5071824;28;20067;-67
2023/07/17 02:16:56;;;;;;;12.27;3.15;;;;;;;-146.27;82.49;82123.06;5071602;28;20028;-66
2023/07/17 02:19:22;;;;;;;14.38;4.30;;;;;;;-146.27;82.56;82123.06;5071987;28;20116;-67
2023/07/17 02:21:47;;;;;;;11.02;2.60;;;;;;;-146.27;82.48;82113.00;5071666;28;20434;-67
2023/07/17 02:24:13;;;;;;;11.30;3.10;;;;;;;-146.27;82.85;82135.09;5071530;28;20027;-67
2023/07/17 02:26:38;;;;;;;11.57;3.55;;;;;;;-146.27;82.51;82129.06;5071482;28;20077;-67
2023/07/17 02:29:04;;;;;;;13.45;3.05;;;;;;;-146.27;82.52;82111.00;5071446;28;20085;-67
2023/07/17 02:31:29;;;;;;;10.25;2.97;;;;;;;-146.27;83.23;82143.13;5071464;28;20100;-67
2023/07/17 02:33:55;;;;;;;9.13;3.70;;;;;;;-146.27;82.90;82159.22;5069988;28;20032;-67
2023/07/17 02:36:20;;;;;;;8.77;3.55;;;;;;;-146.27;82.66;82143.13;5071166;28;20047;-67
2023/07/17 02:38:46;;;;;;;12.45;4.03;;;;;;;-146.27;82.11;82100.97;5071304;28;20107;-67
2023/07/17 02:41:12;;;;;;;15.55;4.07;;;;;;;-146.27;82.44;82113.00;5071105;28;20028;-67
2023/07/17 02:43:38;;;;;;;15.77;3.83;;;;;;;-146.27;82.29;82119.03;5071083;28;20028;-66
2023/07/17 02:46:03;;;;;;;20.00;4.57;;;;;;;-146.27;82.50;82187.31;5070981;28;20104;-66
2023/07/17 02:48:28;;;;;;;16.63;4.00;;;;;;;-146.27;82.47;82163.22;5070903;28;20070;-66
2023/07/17 02:50:54;;;;;;;11.40;4.00;;;;;;;-146.27;82.90;82171.25;5070937;28;20487;-66
2023/07/17 02:53:19;;;;;;;9.30;3.60;;;;;;;-146.27;82.95;82163.22;5071185;28;20121;-67
2023/07/17 02:55:45;;;;;;;16.98;4.22;;;;;;;-146.27;82.13;82149.16;5071004;28;20016;-66
2023/07/17 02:58:10;;;;;;;18.83;4.25;;;;;;;-146.27;82.18;82163.22;5070694;28;20051;-67
2023/07/17 03:00:35;;;;;;;13.02;3.90;;;;;;;-146.27;82.03;82159.22;5070825;28;20020;-67
2023/07/17 03:03:07;;;;;;;13.20;4.60;;;;;;;-146.27;81.98;82151.16;5070685;28;20032;-67
2023/07/17 03:05:34;;;;;;;15.45;4.32;;;;;;;-146.27;82.58;82167.25;5070662;28;20033;-67
2023/07/17 03:08:00;;;;;;;12.18;4.80;;;;;;;-146.27;82.46;82145.16;5070547;28;20111;-67
2023/07/17 03:10:26;;;;;;;13.45;4.32;;;;;;;-146.27;82.44;82151.16;5070676;28;20519;-67
2023/07/17 03:12:51;;;;;;;24.70;4.95;;;;;;;-146.27;82.50;82159.22;5070566;28;20048;-67
2023/07/17 03:15:16;;;;;;;20.33;4.72;;;;;;;-146.27;82.32;82163.22;5070531;28;20420;-67
2023/07/17 03:17:42;;;;;;;18.02;4.63;;;;;;;-146.27;82.72;82171.25;5070503;28;20031;-67
2023/07/17 03:20:10;;;;;;;10.25;4.43;;;;;;;-146.27;82.86;82175.28;5070396;28;20097;-68
2023/07/17 03:22:39;;;;;;;25.70;5.05;;;;;;;-146.27;83.00;82147.16;5070108;28;20411;-67
2023/07/17 03:25:06;;;;;;;17.92;4.88;;;;;;;-146.27;83.19;82205.41;5070423;28;20119;-68
2023/07/17 03:27:32;;;;;;;16.60;4.22;;;;;;;-146.27;83.33;82179.28;5070441;28;20085;-67
2023/07/17 03:29:57;;;;;;;22.65;5.47;;;;;;;-146.27;83.27;82167.25;5070465;28;20044;-67
2023/07/17 03:32:23;;;;;;;13.15;4.13;;;;;;;-146.27;83.60;82183.31;5070719;28;20020;-67
2023/07/17 03:34:48;;;;;;;18.70;5.40;;;;;;;-146.27;83.23;82207.41;5070259;28;20021;-67
2023/07/17 03:37:13;;;;;;;16.10;4.82;;;;;;;-146.27;83.39;82203.41;5070261;28;20341;-67
2023/07/17 03:39:39;;;;;;;11.93;5.25;;;;;;;-146.27;83.36;82165.22;5070329;28;20070;-67
2023/07/17 03:42:10;;;;;;;17.27;4.80;;;;;;;-146.27;83.13;82151.16;5070037;28;20028;-66
2023/07/17 03:44:36;;;;;;;18.15;5.22;;;;;;;-146.27;83.16;82155.19;5070286;28;20028;-66
2023/07/17 03:47:01;;;;;;;17.10;5.25;;;;;;;-146.27;83.17;82167.25;5070052;28;20039;-66
2023/07/17 03:49:27;;;;;;;17.48;5.53;;;;;;;-146.27;83.30;82235.53;5070197;28;20025;-66
2023/07/17 03:51:52;;;;;;;12.75;5.43;;;;;;;-146.27;83.39;82195.38;5070088;28;20506;-66
2023/07/17 03:54:18;;;;;;;17.38;5.55;;;;;;;-146.27;83.11;82223.47;5070102;28;20035;-66
2023/07/17 03:56:43;;;;;;;18.85;5.50;;;;;;;-146.27;83.03;82193.34;5069999;28;20557;-67
2023/07/17 03:59:08;;;;;;;19.42;5.95;;;;;;;-146.27;82.81;82191.34;5070119;28;20442;-66
2023/07/17 04:01:33;;;;;;;21.20;5.78;;;;;;;-146.27;82.46;82169.25;5070246;28;20046;-67
2023/07/17 04:03:59;;;;;;;17.63;5.57;;;;;;;-146.27;82.96;82171.25;5068600;28;20048;-66
2023/07/17 04:06:24;;;;;;;16.90;5.03;;;;;;;-146.27;83.91;82155.19;5069966;28;20028;-67
2023/07/17 04:08:50;;;;;;;20.20;6.15;;;;;;;-146.27;84.83;82165.22;5069963;28;20473;-66
2023/07/17 04:11:15;;;;;;;15.27;5.75;;;;;;;-146.27;85.10;82215.44;5069531;28;20138;-67
2023/07/17 04:13:41;;;;;;;14.98;5.40;;;;;;;-146.27;85.73;82225.50;5070424;28;20030;-67
2023/07/17 04:16:07;;;;;;;20.45;5.53;;;;;;;-146.27;86.41;82279.72;5070170;28;20100;-67
2023/07/17 04:18:33;;;;;;;14.07;6.07;;;;;;;-146.27;86.44;82243.56;5069944;28;20416;-67
2023/07/17 04:20:58;;;;;;;18.20;6.65;;;;;;;-146.27;86.30;82329.94;5069915;28;20132;-66
2023/07/17 04:23:23;;;;;;;15.65;5.60;;;;;;;-146.27;86.03;82279.72;5069859;28;20025;-67
2023/07/17 04:25:50;;;;;;;17.50;5.72;;;;;;;-146.27;86.45;82299.81;5069877;28;20059;-67
2023/07/17 04:28:15;;;;;;;15.38;6.13;;;;;;;-146.27;85.56;82323.91;5069793;28;20111;-66
2023/07/17 04:30:41;;;;;;;13.23;4.80;;;;;;;-146.27;86.13;82319.91;5069885;28;20096;-67
2023/07/17 04:33:06;;;;;;;14.43;4.30;;;;;;;-146.27;85.26;82239.56;5070558;28;20486;-67
2023/07/17 04:35:38;;;;;;;14.75;4.57;;;;;;;-146.27;84.53;82267.69;5073800;28;20026;-66
2023/07/17 04:38:04;;;;;;;13.95;4.25;;;;;;;-146.27;84.45;82317.91;5073608;28;20279;-66
2023/07/17 04:40:30;;;;;;;14.77;4.97;;;;;;;-146.27;84.20;82303.84;5073595;28;20021;-68
2023/07/17 04:42:59;;;;;;;17.38;5.20;;;;;;;-146.27;84.30;82275.72;5073587;28;20028;-67
2023/07/17 04:45:24;;;;;;;9.45;4.15;;;;;;;-146.27;84.13;82263.66;5073435;28;20074;-68
2023/07/17 04:47:49;;;;;;;14.93;6.10;;;;;;;-146.27;85.04;82227.50;5073436;28;20430;-67
2023/07/17 04:50:15;;;;;;;15.50;4.80;;;;;;;-146.27;84.32;82243.56;5073316;28;20052;-67
2023/07/17 04:52:41;;;;;;;14.27;5.25;;;;;;;-146.27;84.19;82241.56;5073565;28;20032;-68
2023/07/17 04:55:06;;;;;;;14.13;5.30;;;;;;;-146.27;84.72;82227.50;5073190;28;20017;-67
2023/07/17 04:57:32;;;;;;;18.25;5.50;;;;;;;-146.27;84.61;82193.34;5073205;28;20033;-67
2023/07/17 04:59:57;;;;;;;21.70;6.13;;;;;;;-146.27;85.25;82203.41;5071768;28;20548;-67
2023/07/17 05:02:22;;;;;;;18.52;4.93;;;;;;;-146.27;84.51;82187.31;5071806;28;20191;-67
2023/07/17 05:04:48;;;;;;;16.90;4.53;;;;;;;-146.27;83.93;82201.38;5072844;28;20059;-68
2023/07/17 05:07:14;;;;;;;15.60;4.57;;;;;;;-146.27;84.13;82177.28;5071641;28;20025;-68
2023/07/17 05:09:39;;;;;;;13.73;4.50;;;;;;;-146.27;84.54;82155.19;5072908;28;20078;-67
2023/07/17 05:12:05;;;;;;;19.27;5.68;;;;;;;-146.27;83.58;82187.31;5072800;28;20404;-68
2023/07/17 05:14:30;;;;;;;14.95;5.22;;;;;;;-146.27;84.77;82155.19;5072704;28;20063;-67
2023/07/17 05:16:56;;;;;;;14.02;5.05;;;;;;;-146.27;84.31;82127.06;5071587;28;20999;-67
2023/07/17 05:19:21;;;;;;;16.73;6.22;;;;;;;-146.27;84.56;82153.19;5072861;28;20036;-67
2023/07/17 05:21:46;;;;;;;12.13;4.68;;;;;;;-146.27;83.58;82155.19;5072790;28;20070;-67
2023/07/17 05:24:12;;;;;;;15.73;4.20;;;;;;;-146.27;83.77;82131.09;5072742;28;20060;-66
2023/07/17 05:26:37;;;;;;;14.77;4.45;;;;;;;-146.27;83.26;82151.16;5072512;28;20388;-67
2023/07/17 05:29:04;;;;;;;14.23;5.40;;;;;;;-146.27;83.03;82159.22;5073070;28;20440;-67
2023/07/17 05:31:30;;;;;;;21.95;5.47;;;;;;;-146.27;82.64;82090.91;5072420;28;20028;-67
2023/07/17 05:33:56;;;;;;;21.05;5.13;;;;;;;-146.27;82.29;82094.94;5072597;28;20024;-66
2023/07/17 05:36:21;;;;;;;12.20;4.13;;;;;;;-146.27;81.27;82133.09;5072467;28;20585;-67
2023/07/17 05:38:47;;;;;;;10.73;3.90;;;;;;;-146.27;81.28;82086.91;5072318;28;20039;-67
2023/07/17 05:41:12;;;;;;;15.57;4.97;;;;;;;-146.27;80.84;82106.97;5072391;28;20028;-67
2023/07/17 05:43:38;;;;;;;13.57;4.05;;;;;;;-146.27;81.03;82038.69;5072308;28;20028;-66
2023/07/17 05:46:03;;;;;;;13.15;3.85;;;;;;;-146.27;80.46;82074.84;5072170;28;20073;-67
2023/07/17 05:48:29;;;;;;;12.18;4.60;;;;;;;-146.27;80.02;82038.69;5072373;28;20378;-67
2023/07/17 05:50:54;;;;;;;9.10;4.07;;;;;;;-146.27;79.58;82058.78;5070885;28;20081;-67
2023/07/17 05:53:19;;;;;;;13.15;3.88;;;;;;;-146.27;78.76;82050.75;5072138;28;20025;-67
2023/07/17 05:55:45;;;;;;;12.13;3.85;;;;;;;-146.27;78.19;81978.44;5072197;28;20020;-67
2023/07/17 05:58:10;;;;;;;11.98;3.70;;;;;;;-146.27;77.97;82006.53;5072035;28;20024;-67
2023/07/17 06:00:35;;;;;;;12.35;3.90;;;;;;;-146.27;78.24;81960.34;5072109;28;20031;-67
2023/07/17 06:03:01;;;;;;;8.50;3.63;;;;;;;-146.27;77.15;81962.34;5071964;28;20396;-67
2023/07/17 06:05:26;;;;;;;8.55;3.28;;;;;;;-146.27;76.67;81990.47;5071795;28;20380;-67
2023/07/17 06:07:52;;;;;;;13.65;3.58;;;;;;;-146.27;77.04;81986.47;5071870;28;20514;-67
2023/07/17 06:10:17;;;;;;;9.18;3.78;;;;;;;-146.27;77.34;81954.31;5072011;28;20123;-67
2023/07/17 06:12:43;;;;;;;11.00;3.33;;;;;;;-146.27;76.82;81958.34;5071711;28;20416;-67
2023/07/17 06:15:16;;;;;;;10.65;4.10;;;;;;;-146.27;76.00;81946.28;5071743;28;20085;-67
2023/07/17 06:17:44;;;;;;;14.82;3.55;;;;;;;-146.27;75.44;81954.31;5071809;28;20330;-67
2023/07/17 06:20:09;;;;;;;10.63;3.17;;;;;;;-146.27;75.27;81922.19;5071658;28;20024;-67
2023/07/17 06:22:35;;;;;;;14.32;3.55;;;;;;;-146.27;74.76;81956.34;5071668;28;20111;-67
2023/07/17 06:25:02;;;;;;;12.77;3.20;;;;;;;-146.27;74.54;81892.06;5071626;28;20491;-67
2023/07/17 06:27:27;;;;;;;12.40;3.50;;;;;;;-146.27;73.69;81873.97;5071515;28;20028;-68
2023/07/17 06:29:53;;;;;;;13.32;3.42;;;;;;;-146.27;73.11;81884.03;5071750;28;20023;-67
2023/07/17 06:32:18;;;;;;;10.57;3.45;;;;;;;-146.27;73.63;81894.06;5071359;28;20400;-66
2023/07/17 06:34:43;;;;;;;15.82;3.50;;;;;;;-146.27;73.04;81869.97;5071371;28;20028;-67
2023/07/17 06:37:09;;;;;;;9.02;3.25;;;;;;;-146.27;72.41;81829.78;5071745;28;20528;-67
2023/07/17 06:39:34;;;;;;;9.35;2.95;;;;;;;-146.27;73.08;81803.69;5071258;28;20429;-67
2023/07/17 06:41:59;;;;;;;11.75;3.63;;;;;;;-146.27;72.91;81793.66;5071053;28;20020;-67
2023/07/17 06:44:25;;;;;;;14.18;3.00;;;;;;;-146.27;72.72;81803.69;5071276;28;20048;-68
2023/07/17 06:46:50;;;;;;;10.52;3.28;;;;;;;-146.27;71.06;81857.91;5071200;28;20377;-67
2023/07/17 06:49:16;;;;;;;10.88;3.00;;;;;;;-146.27;70.84;81777.56;5070960;28;20047;-68
2023/07/17 06:51:41;;;;;;;8.65;2.88;;;;;;;-146.27;69.91;81785.59;5070949;28;20032;-67
2023/07/17 06:54:07;;;;;;;12.15;2.72;;;;;;;-146.27;69.57;81817.75;5070801;28;20025;-68
2023/07/17 06:56:32;;;;;;;13.20;3.05;;;;;;;-146.27;69.76;81777.56;5070830;28;20051;-67
2023/07/17 06:58:57;;;;;;;9.57;2.55;;;;;;;-146.27;70.21;81759.50;5070839;28;20024;-68
2023/07/17 07:01:23;;;;;;;6.43;2.20;;;;;;;-146.27;69.57;81729.38;5070803;28;20028;-68
2023/07/17 07:03:48;;;;;;;14.23;2.70;;;;;;;-146.27;69.15;81709.28;5070715;28;20537;-67
2023/07/17 07:06:13;;;;;;;8.10;2.47;;;;;;;-146.27;69.00;81739.41;5070879;28;20051;-68
2023/07/17 07:08:42;;;;;;;8.18;2.45;;;;;;;-146.27;67.11;81721.34;5070654;28;20046;-67
2023/07/17 07:11:09;;;;;;;10.23;3.30;;;;;;;-146.27;66.39;81731.38;5070353;28;20025;-67
2023/07/17 07:13:34;;;;;;;16.88;2.95;;;;;;;-146.27;66.94;81705.28;5070632;28;20024;-68
2023/07/17 07:15:59;;;;;;;10.75;3.35;;;;;;;-146.27;66.71;81665.09;5070461;28;20472;-68
2023/07/17 07:18:25;;;;;;;9.30;2.50;;;;;;;-146.27;66.12;81691.22;5070401;28;20038;-67
2023/07/17 07:20:53;;;;;;;7.50;2.72;;;;;;;-146.27;65.76;81721.34;5070512;28;20028;-67
2023/07/17 07:23:19;;;;;;;5.50;2.20;;;;;;;-146.27;63.61;81691.22;5070417;28;20036;-67
2023/07/17 07:25:45;;;;;;;5.70;2.17;;;;;;;-146.27;62.93;81677.16;5070241;28;20107;-67
2023/07/17 07:28:11;;;;;;;6.43;2.13;;;;;;;-146.27;62.29;81779.59;5070453;28;20198;-68
2023/07/17 07:30:37;;;;;;;11.35;2.03;;;;;;;-146.27;61.41;81733.38;5070430;28;20056;-67
2023/07/17 07:33:02;;;;;;;8.48;2.15;;;;;;;-146.27;61.65;81745.44;5070304;28;20108;-68
2023/07/17 07:35:28;;;;;;;3.78;1.83;;;;;;;-146.27;60.76;81689.19;5070302;28;20469;-68
2023/07/17 07:37:53;;;;;;;4.90;1.83;;;;;;;-146.27;60.21;81665.09;5070314;28;20028;-68
2023/07/17 07:40:19;;;;;;;5.80;1.98;;;;;;;-146.27;60.36;81711.28;5070186;28;20060;-68
2023/07/17 07:42:44;;;;;;;6.95;2.28;;;;;;;-146.27;61.19;81643.00;5070130;28;20107;-67
2023/07/17 07:45:11;;;;;;;8.15;2.70;;;;;;;-146.27;61.64;81592.78;5070232;28;20496;-67
2023/07/17 07:47:37;;;;;;;6.22;1.90;;;;;;;-146.27;60.87;81536.56;5070100;28;20124;-67
2023/07/17 07:50:03;;;;;;;10.30;1.98;;;;;;;-146.27;59.81;81552.63;5070238;28;20032;-68
2023/07/17 07:52:28;;;;;;;8.98;2.00;;;;;;;-146.27;59.69;81556.66;5070410;28;20562;-67
2023/07/17 07:54:54;;;;;;;6.45;2.00;;;;;;;-146.27;60.65;81604.84;5070081;28;20024;-69
2023/07/17 07:57:20;;;;;;;6.25;2.10;;;;;;;-146.27;60.86;81608.88;5070010;28;20024;-67
2023/07/17 07:59:45;;;;;;;7.95;2.20;;;;;;;-146.27;61.85;81647.03;5070023;28;20453;-68
2023/07/17 08:02:12;;;;;;;6.25;1.80;;;;;;;-146.27;60.70;81620.91;5068567;28;20033;-67
2023/07/17 08:04:37;;;;;;;5.25;1.88;;;;;;;-146.27;60.92;81576.72;5068606;28;20058;-68
2023/07/17 08:07:03;;;;;;;7.32;2.45;;;;;;;-146.27;60.36;81681.16;5069881;28;20530;-68
2023/07/17 08:09:29;;;;;;;5.20;1.65;;;;;;;-146.27;60.73;81709.28;5072734;28;20028;-67
2023/07/17 08:11:54;;;;;;;5.75;1.75;;;;;;;-146.27;60.22;81689.19;5074050;28;20048;-68
2023/07/17 08:14:21;;;;;;;4.90;1.52;;;;;;;-146.27;60.52;81677.16;5072902;28;20106;-68
2023/07/17 08:16:47;;;;;;;9.82;2.00;;;;;;;-146.27;60.45;81598.81;5073900;28;20021;-68
2023/07/17 08:19:12;;;;;;;9.57;2.20;;;;;;;-146.27;60.32;81588.78;5074122;28;20503;-67
2023/07/17 08:21:38;;;;;;;6.85;1.52;;;;;;;-146.27;59.82;81544.59;5073946;28;20028;-68
2023/07/17 08:24:03;;;;;;;8.02;2.13;;;;;;;-146.27;60.97;81576.72;5073701;28;20099;-67
2023/07/17 08:26:29;;;;;;;10.48;2.17;;;;;;;-146.27;61.51;81566.69;5073926;28;20584;-68
2023/07/17 08:28:54;;;;;;;6.75;1.77;;;;;;;-146.27;60.72;81568.69;5073939;28;20476;-68
2023/07/17 08:31:20;;;;;;;8.48;2.22;;;;;;;-146.27;61.47;81532.53;5073840;28;20021;-67
2023/07/17 08:33:45;;;;;;;5.55;1.80;;;;;;;-146.27;60.37;81622.91;5073623;28;20035;-68
2023/07/17 08:36:11;;;;;;;5.53;1.73;;;;;;;-146.27;60.08;81566.69;5073910;28;20471;-68
2023/07/17 08:38:37;;;;;;;6.78;1.63;;;;;;;-146.27;58.92;81612.88;5073735;28;20028;-67
2023/07/17 08:41:03;;;;;;;4.80;1.80;;;;;;;-146.27;57.65;81608.88;5073488;28;20324;-68
2023/07/17 08:43:29;;;;;;;4.20;1.58;;;;;;;-146.27;58.71;81622.91;5073479;28;20111;-68
2023/07/17 08:45:55;;;;;;;6.70;1.45;;;;;;;-146.27;59.53;81554.63;5073250;28;20097;-68
2023/07/17 08:48:22;;;;;;;7.03;1.70;;;;;;;-146.27;59.37;81588.78;5073808;28;20029;-68
2023/07/17 08:50:50;;;;;;;6.03;1.40;;;;;;;-146.27;59.48;81604.84;5073328;28;20040;-68
2023/07/17 08:53:17;;;;;;;4.68;1.55;;;;;;;-146.27;59.14;81576.72;5073335;28;20528;-68
2023/07/17 08:55:43;;;;;;;5.03;1.73;;;;;;;-146.27;58.62;81502.41;5073051;28;20460;-69
2023/07/17 08:58:10;;;;;;;6.75;1.70;;;;;;;-146.27;57.95;81402.00;5073115;28;20036;-68
2023/07/17 09:00:36;;;;;;;5.80;1.48;;;;;;;-146.27;56.53;81377.91;5073301;28;20047;-69
2023/07/17 09:03:02;;;;;;;8.20;1.90;;;;;;;-146.27;57.29;81361.84;5073099;28;20027;-68
2023/07/17 09:05:28;;;;;;;6.60;1.70;;;;;;;-146.27;58.27;81343.75;5072929;28;20024;-68
2023/07/17 09:07:53;;;;;;;5.63;1.55;;;;;;;-146.27;58.12;81333.72;5073207;28;20028;-68
2023/07/17 09:10:23;;;;;;;6.47;1.70;;;;;;;-146.27;58.10;81331.72;5072869;28;20028;-68
2023/07/17 09:12:49;;;;;;;7.60;1.83;;;;;;;-146.27;58.58;81219.25;5072730;28;20057;-68
2023/07/17 09:15:15;;;;;;;5.53;1.55;;;;;;;-146.27;57.21;81211.22;5072760;28;20049;-68
2023/07/17 09:17:41;;;;;;;5.72;1.73;;;;;;;-146.27;57.36;81315.66;5074749;28;20077;-68
2023/07/17 09:20:13;;;;;;;9.93;1.83;;;;;;;-146.27;57.83;81359.81;5071128;28;20025;-68
2023/07/17 09:22:38;;;;;;;11.75;1.92;;;;;;;-146.27;57.08;81391.97;5071574;28;20468;-68
2023/07/17 09:25:05;;;;;;;6.72;2.05;;;;;;;-146.27;57.63;81400.00;5072768;28;20025;-69
2023/07/17 09:27:48;;;;;;;4.30;1.80;;;;;;;-146.27;59.89;81428.09;5072692;28;20027;-67
2023/07/17 09:30:16;;;;;;;7.18;2.53;;;;;;;-146.27;58.67;81355.81;5072685;28;20032;-67
2023/07/17 09:32:42;;;;;;;7.15;1.80;;;;;;;-146.27;57.55;81309.63;5072413;28;20028;-68
2023/07/17 09:35:09;;;;;;;4.82;1.63;;;;;;;-146.27;56.68;81349.78;5072628;28;20099;-68
2023/07/17 09:37:35;;;;;;;9.80;1.85;;;;;;;-146.27;56.42;81293.56;5072616;28;20021;-67
2023/07/17 09:40:10;;;;;;;7.18;1.90;;;;;;;-146.27;57.02;81309.63;5072437;28;20012;-68
2023/07/17 09:42:40;;;;;;;11.43;2.10;;;;;;;-146.27;57.20;81329.72;5072392;28;20023;-67
2023/07/17 09:45:06;;;;;;;10.18;2.40;;;;;;;-146.27;57.30;81416.06;5072403;28;20039;-68
2023/07/17 09:47:34;;;;;;;5.20;1.65;;;;;;;-146.27;55.83;81528.53;5072329;28;20035;-68
2023/07/17 09:50:01;;;;;;;6.07;1.35;;;;;;;-146.27;54.44;81504.44;5072269;28;20546;-68
2023/07/17 09:52:31;;;;;;;6.70;1.90;;;;;;;-146.27;54.53;81516.47;5072207;28;20083;-68
2023/07/17 09:55:01;;;;;;;5.10;1.80;;;;;;;-146.27;55.85;81395.97;5072189;28;20021;-68
2023/07/17 09:57:27;;;;;;;10.60;1.60;;;;;;;-146.27;55.04;81313.63;5072220;28;20472;-68
2023/07/17 10:00:00;;;;;;;6.45;1.80;;;;;;;-146.27;54.77;81349.78;5072052;28;20057;-68
2023/07/17 10:02:58;;;;;;;16.38;2.10;;;;;;;-146.27;55.94;81317.66;5072440;28;20337;-67
2023/07/17 10:05:24;;;;;;;8.40;2.97;;;;;;;-146.27;56.79;81347.78;5071652;28;20040;-68
2023/07/17 10:07:51;;;;;;;12.65;2.50;;;;;;;-146.27;57.98;81345.78;5072085;28;20444;-67
2023/07/17 10:10:18;;;;;;;9.18;2.90;;;;;;;-146.27;58.90;81381.91;5071905;28;20055;-68
2023/07/17 10:12:44;;;;;;;8.07;2.55;;;;;;;-146.27;59.06;81331.72;5071777;28;20049;-67
2023/07/17 10:15:11;;;;;;;9.65;2.60;;;;;;;-146.27;58.62;81291.53;5071967;28;20618;-68
2023/07/17 10:17:36;;;;;;;8.82;2.65;;;;;;;-146.27;58.95;81215.22;5071720;28;20365;-67
2023/07/17 10:20:20;;;;;;;8.18;2.60;;;;;;;-146.27;58.92;81199.16;5071615;28;20020;-68
2023/07/17 10:22:45;;;;;;;10.10;2.65;;;;;;;-146.27;58.29;81195.16;5071582;28;20543;-68
2023/07/17 10:25:17;;;;;;;7.30;2.63;;;;;;;-146.27;54.59;81126.88;5071749;28;20107;-69
2023/07/17 10:27:45;;;;;;;5.88;2.28;;;;;;;-146.27;54.57;81084.69;5071502;28;20111;-68
2023/07/17 10:30:30;;;;;;;5.60;2.80;;;;;;;-146.27;54.25;81066.63;5071620;28;20016;-68
2023/07/17 10:33:14;;;;;;;9.95;3.00;;;;;;;-146.27;64.42;81327.69;5070974;28;20115;-68
2023/07/17 10:35:45;;;;;;;;;;;;;;;-146.27;72.89;81470.28;5071661;28;20024;-68
2023/07/17 10:38:12;;;;;;;8.80;3.05;;;;;;;-146.27;75.93;81598.81;5071299;28;19908;-69
2023/07/17 10:40:38;;;;;;;8.50;3.40;;;;;;;-146.27;75.38;81632.97;5071083;28;20115;-67
2023/07/17 10:43:18;;;;;;;9.50;3.47;;;;;;;-146.27;75.69;81554.63;5071207;28;20029;-68
2023/07/17 10:45:45;;;;;;;6.70;3.08;;;;;;;-146.27;74.38;81568.69;5070937;28;20111;-68
2023/07/17 10:48:11;;;;;;;15.52;3.58;;;;;;;-146.27;73.29;81504.44;5071287;28;20545;-68
2023/07/17 10:50:39;;;;;;;7.68;3.08;;;;;;;-146.27;70.15;81476.31;5071111;28;20029;-68
2023/07/17 10:53:05;;;;;;;8.43;3.00;;;;;;;-146.27;68.30;81492.38;5070962;28;20040;-68
2023/07/17 10:55:32;;;;;;;12.00;3.33;;;;;;;-146.27;68.82;81496.41;5070934;28;20023;-68
2023/07/17 10:57:58;;;;;;;12.38;3.20;;;;;;;-146.27;65.29;81506.44;5070861;28;20098;-67
2023/07/17 11:00:24;;;;;;;8.70;3.20;;;;;;;-146.27;68.51;81389.94;5070756;28;20020;-67
2023/07/17 11:02:50;;;;;;;10.02;3.13;;;;;;;-146.27;69.96;81383.94;5070698;28;20077;-67
2023/07/17 11:05:15;;;;;;;14.18;3.35;;;;;;;-146.27;70.06;81369.88;5070660;28;20095;-67
2023/07/17 11:07:40;;;;;;;7.22;2.72;;;;;;;-146.27;68.13;81359.81;5070684;28;20366;-67
2023/07/17 11:10:13;;;;;;;10.52;3.40;;;;;;;-146.27;68.84;81323.69;5070667;28;20082;-68